Time;durP1;ratioP1;P1;durP2;ratioP2;P2;SDS_P1;SDS_P2;PMS_P1;PMS_P2;Temp;Humidity;BMP_temperature;BMP_pressure;BME280_temperature;BME280_humidity;BME280_pressure;Samples;Min_cycle;Max_cycle;Signal;HPM_P1;HPM_P2
2023/04/20 00:00:51;;;;;;;6.53;5.22;;;;;;;;;;4816100;29;20058;-79
2023/04/20 00:03:20;;;;;;;5.60;4.95;;;;;;;;;;4826821;29;20054;-78
2023/04/20 00:05:48;;;;;;;5.38;4.88;;;;;;;;;;4832082;29;20074;-77
2023/04/20 00:08:19;;;;;;;5.43;4.93;;;;;;;;;;4834273;29;20050;-77
2023/04/20 00:10:46;;;;;;;6.85;5.72;;;;;;;;;;4831304;29;20691;-78
2023/04/20 00:13:13;;;;;;;5.78;5.28;;;;;;;;;;4822506;29;20042;-78
2023/04/20 00:15:41;;;;;;;5.38;4.47;;;;;;;;;;4831190;29;20058;-77
2023/04/20 00:18:08;;;;;;;5.38;4.88;;;;;;;;;;4819903;29;20047;-77
2023/04/20 00:20:36;;;;;;;5.63;5.07;;;;;;;;;;4828962;29;20429;-78
2023/04/20 00:23:03;;;;;;;5.28;4.82;;;;;;;;;;4824566;29;20556;-78
2023/04/20 00:25:31;;;;;;;5.30;4.15;;;;;;;;;;4823226;29;20046;-77
2023/04/20 00:27:59;;;;;;;5.10;4.60;;;;;;;;;;4820316;29;20054;-77
2023/04/20 00:30:27;;;;;;;7.25;5.25;;;;;;;;;;4820693;29;20091;-78
2023/04/20 00:32:54;;;;;;;6.03;5.43;;;;;;;;;;4829595;29;20076;-77
2023/04/20 00:35:22;;;;;;;6.07;5.47;;;;;;;;;;4830022;29;20571;-78
2023/04/20 00:37:51;;;;;;;8.15;6.50;;;;;;;;;;4825223;29;20081;-78
2023/04/20 00:40:18;;;;;;;8.13;5.75;;;;;;;;;;4831108;29;20053;-78
2023/04/20 00:42:45;;;;;;;6.20;5.50;;;;;;;;;;4829858;29;20462;-78
2023/04/20 00:45:13;;;;;;;6.50;5.90;;;;;;;;;;4831005;29;20060;-79
2023/04/20 00:47:40;;;;;;;7.57;5.60;;;;;;;;;;4828169;29;20054;-79
2023/04/20 00:50:08;;;;;;;5.72;5.15;;;;;;;;;;4824094;29;20065;-77
2023/04/20 00:52:38;;;;;;;6.40;5.00;;;;;;;;;;4826695;29;20050;-78
2023/04/20 00:55:06;;;;;;;5.30;4.80;;;;;;;;;;4826892;29;20398;-79
2023/04/20 00:57:33;;;;;;;8.02;5.43;;;;;;;;;;4829789;29;20491;-77
2023/04/20 01:00:01;;;;;;;6.03;5.53;;;;;;;;;;4827453;29;20125;-79
2023/04/20 01:02:28;;;;;;;6.28;5.65;;;;;;;;;;4842656;29;20058;-79
2023/04/20 01:04:56;;;;;;;6.60;5.93;;;;;;;;;;4834340;29;20521;-78
2023/04/20 01:07:23;;;;;;;6.22;5.63;;;;;;;;;;4840660;29;20058;-78
2023/04/20 01:09:51;;;;;;;8.75;6.50;;;;;;;;;;4830107;29;20061;-78
2023/04/20 01:12:18;;;;;;;6.43;5.82;;;;;;;;;;4827802;29;20524;-78
2023/04/20 01:14:46;;;;;;;7.47;6.22;;;;;;;;;;4824188;29;20042;-78
2023/04/20 01:17:13;;;;;;;6.78;6.18;;;;;;;;;;4843762;29;20058;-79
2023/04/20 01:19:44;;;;;;;6.90;6.22;;;;;;;;;;4825123;29;20041;-77
2023/04/20 01:22:19;;;;;;;7.28;5.93;;;;;;;;;;4825213;29;20138;-79
2023/04/20 01:24:47;;;;;;;6.20;5.60;;;;;;;;;;4827299;29;20413;-78
2023/04/20 01:27:15;;;;;;;8.30;6.30;;;;;;;;;;4826561;29;20478;-79
2023/04/20 01:29:43;;;;;;;6.32;5.72;;;;;;;;;;4841762;29;20131;-78
2023/04/20 01:32:11;;;;;;;8.43;6.47;;;;;;;;;;4843727;29;20045;-77
2023/04/20 01:34:38;;;;;;;8.25;6.55;;;;;;;;;;4830154;29;20126;-78
2023/04/20 01:37:07;;;;;;;8.80;7.10;;;;;;;;;;4824004;29;20047;-79
2023/04/20 01:39:35;;;;;;;8.77;6.38;;;;;;;;;;4823317;29;20134;-79
2023/04/20 01:42:03;;;;;;;9.52;6.57;;;;;;;;;;4830513;29;20056;-79
2023/04/20 01:44:30;;;;;;;10.25;6.40;;;;;;;;;;4829474;29;20057;-78
2023/04/20 01:46:57;;;;;;;8.38;6.55;;;;;;;;;;4845996;29;20133;-78
2023/04/20 01:49:25;;;;;;;8.98;6.50;;;;;;;;;;4824537;29;20208;-78
2023/04/20 01:51:53;;;;;;;7.72;6.55;;;;;;;;;;4830135;29;20053;-78
2023/04/20 01:54:21;;;;;;;7.22;6.10;;;;;;;;;;4840375;29;20104;-77
2023/04/20 01:56:48;;;;;;;9.85;6.82;;;;;;;;;;4829386;29;20050;-77
2023/04/20 01:59:16;;;;;;;7.88;6.70;;;;;;;;;;4822396;29;20065;-78
2023/04/20 02:01:43;;;;;;;8.90;6.15;;;;;;;;;;4847362;29;20076;-79
2023/04/20 02:04:11;;;;;;;7.57;6.82;;;;;;;;;;4832934;29;20049;-78
2023/04/20 02:06:39;;;;;;;7.57;6.13;;;;;;;;;;4829691;29;20061;-77
2023/04/20 02:09:09;;;;;;;9.35;6.88;;;;;;;;;;4831795;29;20050;-78
2023/04/20 02:11:36;;;;;;;8.50;6.93;;;;;;;;;;4832899;29;20125;-79
2023/04/20 02:14:05;;;;;;;8.73;6.95;;;;;;;;;;4877409;24;20060;-82
2023/04/20 02:16:34;;;;;;;8.70;7.30;;;;;;;;;;4857398;29;20054;-83
2023/04/20 02:19:01;;;;;;;7.78;6.88;;;;;;;;;;4858450;29;20079;-83
2023/04/20 02:21:30;;;;;;;8.07;6.55;;;;;;;;;;4864457;29;20117;-82
2023/04/20 02:23:57;;;;;;;8.38;6.90;;;;;;;;;;4864943;29;20045;-84
2023/04/20 02:26:26;;;;;;;11.52;7.50;;;;;;;;;;4854237;29;20063;-83
2023/04/20 02:28:53;;;;;;;8.40;7.22;;;;;;;;;;4873021;29;20053;-82
2023/04/20 02:31:21;;;;;;;7.53;6.28;;;;;;;;;;4856685;29;20090;-82
2023/04/20 02:33:49;;;;;;;7.47;6.38;;;;;;;;;;4858032;29;20107;-83
2023/04/20 02:36:16;;;;;;;7.28;6.57;;;;;;;;;;4852019;29;20098;-83
2023/04/20 02:38:43;;;;;;;6.70;6.00;;;;;;;;;;4856711;29;20074;-84
2023/04/20 02:41:11;;;;;;;9.52;5.40;;;;;;;;;;4860632;29;20144;-84
2023/04/20 02:43:46;;;;;;;6.03;5.43;;;;;;;;;;4849618;29;20049;-83
2023/04/20 02:46:17;;;;;;;53.53;34.22;;;;;;;;;;4848938;29;20072;-83
2023/04/20 02:48:45;;;;;;;6.38;5.40;;;;;;;;;;4850899;29;20106;-83
2023/04/20 02:51:12;;;;;;;5.10;4.60;;;;;;;;;;4864685;29;20413;-84
2023/04/20 02:53:43;;;;;;;15.25;9.60;;;;;;;;;;4852973;29;20060;-83
2023/04/20 02:56:17;;;;;;;39.78;27.02;;;;;;;;;;4854829;29;20133;-83
2023/04/20 02:58:53;;;;;;;32.45;20.48;;;;;;;;;;4855603;29;20542;-84
2023/04/20 03:01:45;;;;;;;12.02;10.85;;;;;;;;;;4847035;29;20062;-84
2023/04/20 03:04:16;;;;;;;10.45;9.52;;;;;;;;;;4852427;29;20056;-85
2023/04/20 03:07:06;;;;;;;5.88;4.53;;;;;;;;;;4843724;29;20060;-85
2023/04/20 03:09:40;;;;;;;134.93;122.85;;;;;;;;;;4856607;29;20045;-84
2023/04/20 03:12:53;;;;;;;5.45;4.95;;;;;;;;;;4846970;29;20128;-84
2023/04/20 03:16:06;;;;;;;150.88;84.70;;;;;;;;;;4867767;29;20050;-84
2023/04/20 03:18:51;;;;;;;4.53;4.13;;;;;;;;;;4853552;29;20539;-83
2023/04/20 03:21:39;;;;;;;9.57;6.72;;;;;;;;;;4853513;29;20128;-84
2023/04/20 03:24:08;;;;;;;8.07;6.50;;;;;;;;;;4854262;29;20045;-84
2023/04/20 03:26:51;;;;;;;19.52;10.63;;;;;;;;;;4851477;29;20588;-85
2023/04/20 03:29:31;;;;;;;10.63;6.68;;;;;;;;;;4853077;29;20069;-84
2023/04/20 03:31:59;;;;;;;10.13;6.30;;;;;;;;;;4853827;29;20068;-85
2023/04/20 03:34:33;;;;;;;10.73;7.35;;;;;;;;;;4851229;29;20054;-84
2023/04/20 03:37:05;;;;;;;7.47;5.80;;;;;;;;;;4852107;29;20041;-84
2023/04/20 03:39:40;;;;;;;8.07;7.00;;;;;;;;;;4852467;29;20045;-84
2023/04/20 03:42:15;;;;;;;9.60;7.28;;;;;;;;;;4858970;29;20064;-85
2023/04/20 03:44:44;;;;;;;7.45;6.75;;;;;;;;;;4866202;24;20097;-82
2023/04/20 03:47:12;;;;;;;7.28;5.93;;;;;;;;;;4854509;29;20156;-86
2023/04/20 03:49:40;;;;;;;9.52;7.43;;;;;;;;;;4850326;29;20223;-86
2023/04/20 03:52:07;;;;;;;8.60;6.78;;;;;;;;;;4846109;29;20057;-84
2023/04/20 03:54:35;;;;;;;8.63;7.03;;;;;;;;;;4847607;29;20049;-83
2023/04/20 03:57:03;;;;;;;9.20;7.10;;;;;;;;;;4849136;29;20066;-82
2023/04/20 03:59:31;;;;;;;7.03;6.20;;;;;;;;;;4846262;29;20397;-85
2023/04/20 04:02:01;;;;;;;10.32;7.20;;;;;;;;;;4847128;29;20052;-85
2023/04/20 04:04:29;;;;;;;7.78;6.50;;;;;;;;;;4842611;29;20323;-85
2023/04/20 04:06:57;;;;;;;9.13;7.68;;;;;;;;;;4853151;29;20453;-83
2023/04/20 04:09:25;;;;;;;8.05;6.78;;;;;;;;;;4846737;29;20080;-85
2023/04/20 04:11:53;;;;;;;11.85;7.45;;;;;;;;;;4843718;29;20426;-84
2023/04/20 04:14:22;;;;;;;7.35;6.65;;;;;;;;;;4845760;29;20512;-85
2023/04/20 04:16:49;;;;;;;9.52;7.25;;;;;;;;;;4843875;29;20041;-84
2023/04/20 04:19:17;;;;;;;10.15;6.70;;;;;;;;;;4845006;29;20079;-85
2023/04/20 04:21:45;;;;;;;11.35;8.02;;;;;;;;;;4852103;29;20045;-83
2023/04/20 04:24:14;;;;;;;10.40;8.15;;;;;;;;;;4854209;29;20041;-85
2023/04/20 04:26:57;;;;;;;9.55;7.47;;;;;;;;;;4850605;29;20056;-83
2023/04/20 04:29:28;;;;;;;8.98;7.57;;;;;;;;;;4858636;29;20050;-83
2023/04/20 04:32:03;;;;;;;9.85;7.82;;;;;;;;;;4850415;29;20087;-84
2023/04/20 04:34:32;;;;;;;8.55;7.63;;;;;;;;;;4842430;29;20495;-86
2023/04/20 04:37:01;;;;;;;10.52;7.38;;;;;;;;;;4844610;29;20083;-83
2023/04/20 04:39:40;;;;;;;11.35;7.88;;;;;;;;;;4843862;29;20420;-84
2023/04/20 04:42:17;;;;;;;13.60;8.05;;;;;;;;;;4832102;29;20459;-85
2023/04/20 04:44:46;;;;;;;11.65;7.20;;;;;;;;;;4843838;29;20041;-84
2023/04/20 04:47:21;;;;;;;11.13;7.60;;;;;;;;;;4840852;29;20053;-82
2023/04/20 04:49:49;;;;;;;8.98;7.72;;;;;;;;;;4843305;29;20404;-83
2023/04/20 04:52:16;;;;;;;11.02;6.90;;;;;;;;;;4846617;29;20052;-82
2023/04/20 04:54:44;;;;;;;10.50;7.88;;;;;;;;;;4844967;29;20053;-85
2023/04/20 04:57:13;;;;;;;9.80;7.40;;;;;;;;;;4849728;29;20057;-83
2023/04/20 04:59:41;;;;;;;9.60;7.07;;;;;;;;;;4848128;29;20473;-84
2023/04/20 05:02:09;;;;;;;9.27;7.40;;;;;;;;;;4854042;29;20046;-87
2023/04/20 05:04:37;;;;;;;11.20;8.07;;;;;;;;;;4871156;29;20050;-82
2023/04/20 05:07:04;;;;;;;13.80;8.45;;;;;;;;;;4877010;29;20056;-82
2023/04/20 05:09:32;;;;;;;12.70;8.45;;;;;;;;;;4857004;29;20053;-85
2023/04/20 05:12:00;;;;;;;9.35;7.78;;;;;;;;;;4847567;29;20081;-84
2023/04/20 05:14:27;;;;;;;11.63;8.32;;;;;;;;;;4844728;29;20105;-84
2023/04/20 05:16:54;;;;;;;11.13;8.35;;;;;;;;;;4851323;29;20523;-82
2023/04/20 05:19:22;;;;;;;12.80;8.90;;;;;;;;;;4852223;29;20041;-83
2023/04/20 05:21:50;;;;;;;11.32;8.32;;;;;;;;;;4844896;29;20098;-85
2023/04/20 05:24:18;;;;;;;11.43;8.10;;;;;;;;;;4848827;29;20140;-84
2023/04/20 05:26:46;;;;;;;10.73;8.27;;;;;;;;;;4850074;29;20072;-84
2023/04/20 05:29:14;;;;;;;10.38;7.97;;;;;;;;;;4838728;29;20576;-85
2023/04/20 05:31:42;;;;;;;10.68;8.77;;;;;;;;;;4846616;29;20409;-85
2023/04/20 05:34:11;;;;;;;12.48;8.43;;;;;;;;;;4841784;29;20050;-83
2023/04/20 05:36:40;;;;;;;13.30;9.32;;;;;;;;;;4846661;29;20060;-82
2023/04/20 05:39:07;;;;;;;11.88;9.02;;;;;;;;;;4846011;29;20117;-81
2023/04/20 05:41:35;;;;;;;11.43;9.00;;;;;;;;;;4847999;29;20374;-83
2023/04/20 05:44:03;;;;;;;14.18;8.93;;;;;;;;;;4870404;29;20053;-80
2023/04/20 05:46:30;;;;;;;11.68;9.25;;;;;;;;;;4860700;29;20061;-84
2023/04/20 05:48:57;;;;;;;9.57;7.50;;;;;;;;;;4853768;29;20057;-83
2023/04/20 05:51:29;;;;;;;12.88;9.90;;;;;;;;;;4854582;29;20052;-84
2023/04/20 05:53:56;;;;;;;16.45;9.25;;;;;;;;;;4848549;29;20055;-82
2023/04/20 05:56:24;;;;;;;11.65;8.38;;;;;;;;;;4848720;29;20046;-85
2023/04/20 05:58:52;;;;;;;18.20;8.57;;;;;;;;;;4848239;29;20107;-81
2023/04/20 06:01:19;;;;;;;9.27;7.80;;;;;;;;;;4853141;29;20049;-84
2023/04/20 06:03:48;;;;;;;16.00;10.55;;;;;;;;;;4849377;29;20448;-81
2023/04/20 06:06:15;;;;;;;14.27;8.65;;;;;;;;;;4853170;29;20565;-80
2023/04/20 06:08:43;;;;;;;11.05;9.25;;;;;;;;;;4857255;29;20052;-82
2023/04/20 06:11:11;;;;;;;16.17;11.90;;;;;;;;;;4860491;29;20124;-83
2023/04/20 06:13:38;;;;;;;23.23;18.70;;;;;;;;;;4849346;29;20503;-82
2023/04/20 06:16:09;;;;;;;13.02;9.57;;;;;;;;;;4852262;29;20058;-84
2023/04/20 06:18:37;;;;;;;10.80;8.80;;;;;;;;;;4846932;29;20090;-82
2023/04/20 06:21:05;;;;;;;10.18;8.32;;;;;;;;;;4856781;29;20306;-84
2023/04/20 06:23:32;;;;;;;10.90;8.15;;;;;;;;;;4864680;29;20064;-81
2023/04/20 06:25:59;;;;;;;9.15;7.78;;;;;;;;;;4870177;29;20045;-81
2023/04/20 06:28:27;;;;;;;10.07;8.98;;;;;;;;;;4860048;29;20061;-84
2023/04/20 06:30:54;;;;;;;11.57;8.40;;;;;;;;;;4845358;29;20053;-84
2023/04/20 06:33:22;;;;;;;12.60;9.40;;;;;;;;;;4844025;29;20050;-84
2023/04/20 06:35:50;;;;;;;11.20;8.90;;;;;;;;;;4836779;29;20053;-82
2023/04/20 06:38:17;;;;;;;11.00;9.32;;;;;;;;;;4849180;29;20057;-84
2023/04/20 06:40:45;;;;;;;15.18;8.13;;;;;;;;;;4850509;29;20053;-84
2023/04/20 06:43:12;;;;;;;13.02;10.73;;;;;;;;;;4849360;29;20191;-82
2023/04/20 06:45:40;;;;;;;12.40;9.27;;;;;;;;;;4850043;29;20054;-85
2023/04/20 06:48:07;;;;;;;10.15;7.88;;;;;;;;;;4850629;29;20060;-85
2023/04/20 06:50:55;;;;;;;10.75;8.18;;;;;;;;;;4858520;29;20105;-82
2023/04/20 06:53:22;;;;;;;12.25;8.35;;;;;;;;;;4853269;29;20452;-84
2023/04/20 06:55:50;;;;;;;11.75;8.55;;;;;;;;;;4846554;29;20069;-84
2023/04/20 06:58:17;;;;;;;9.77;7.63;;;;;;;;;;4845005;29;20057;-83
2023/04/20 07:00:46;;;;;;;17.08;8.48;;;;;;;;;;4850038;29;20060;-84
2023/04/20 07:03:14;;;;;;;15.65;10.35;;;;;;;;;;4850560;29;20057;-81
2023/04/20 07:05:42;;;;;;;13.77;9.45;;;;;;;;;;4865362;29;20087;-83
2023/04/20 07:08:10;;;;;;;9.93;8.30;;;;;;;;;;4850405;29;20124;-83
2023/04/20 07:10:39;;;;;;;17.15;11.18;;;;;;;;;;4853542;29;20077;-86
2023/04/20 07:13:06;;;;;;;10.23;7.78;;;;;;;;;;4862771;29;20048;-80
2023/04/20 07:15:33;;;;;;;24.70;9.40;;;;;;;;;;4856407;29;20058;-83
2023/04/20 07:18:01;;;;;;;12.43;8.10;;;;;;;;;;4847165;29;20045;-81
2023/04/20 07:20:29;;;;;;;9.77;7.60;;;;;;;;;;4852305;29;20520;-81
2023/04/20 07:22:56;;;;;;;10.07;8.07;;;;;;;;;;4847461;29;20050;-81
2023/04/20 07:25:24;;;;;;;9.07;7.95;;;;;;;;;;4847499;29;20069;-84
2023/04/20 07:27:52;;;;;;;10.23;8.60;;;;;;;;;;4842502;29;20427;-85
2023/04/20 07:30:20;;;;;;;18.23;12.10;;;;;;;;;;4848212;29;20145;-85
2023/04/20 07:32:48;;;;;;;17.40;15.57;;;;;;;;;;4844860;29;20144;-82
2023/04/20 07:35:16;;;;;;;12.98;10.88;;;;;;;;;;4843455;29;20045;-83
2023/04/20 07:37:43;;;;;;;10.73;9.63;;;;;;;;;;4855223;29;20210;-83
2023/04/20 07:40:11;;;;;;;7.15;6.25;;;;;;;;;;4859220;29;20636;-85
2023/04/20 07:42:38;;;;;;;10.30;8.15;;;;;;;;;;4872186;29;20045;-81
2023/04/20 07:45:07;;;;;;;10.25;8.80;;;;;;;;;;4869861;29;20133;-81
2023/04/20 07:47:34;;;;;;;10.82;7.93;;;;;;;;;;4869456;29;20064;-84
2023/04/20 07:50:03;;;;;;;8.60;7.57;;;;;;;;;;4854381;29;20053;-82
2023/04/20 07:52:31;;;;;;;8.80;7.68;;;;;;;;;;4853748;29;20081;-84
2023/04/20 07:54:59;;;;;;;7.30;6.55;;;;;;;;;;4855310;29;20053;-84
2023/04/20 07:57:26;;;;;;;6.63;6.03;;;;;;;;;;4841144;29;20057;-82
2023/04/20 07:59:54;;;;;;;7.70;5.95;;;;;;;;;;4860422;29;20458;-83
2023/04/20 08:02:21;;;;;;;6.60;4.97;;;;;;;;;;4840213;29;20074;-84
2023/04/20 08:04:49;;;;;;;7.75;6.78;;;;;;;;;;4837009;29;20101;-85
2023/04/20 08:07:17;;;;;;;4.72;4.38;;;;;;;;;;4852200;29;20067;-83
2023/04/20 08:09:45;;;;;;;5.35;3.53;;;;;;;;;;4851093;29;20084;-84
2023/04/20 08:12:12;;;;;;;4.47;4.07;;;;;;;;;;4841483;29;20066;-83
2023/04/20 08:14:40;;;;;;;3.60;3.38;;;;;;;;;;4856521;24;20512;-82
2023/04/20 08:17:07;;;;;;;7.13;3.33;;;;;;;;;;4839747;29;20080;-81
2023/04/20 08:19:35;;;;;;;5.43;3.55;;;;;;;;;;4841937;29;20114;-81
2023/04/20 08:22:04;;;;;;;3.72;3.40;;;;;;;;;;4853932;29;20120;-82
2023/04/20 08:24:32;;;;;;;4.32;4.03;;;;;;;;;;4859290;29;20148;-81
2023/04/20 08:27:00;;;;;;;4.78;3.53;;;;;;;;;;4845855;29;20058;-81
2023/04/20 08:29:27;;;;;;;3.25;3.05;;;;;;;;;;4844102;29;20080;-81
2023/04/20 08:31:55;;;;;;;3.70;3.40;;;;;;;;;;4844063;29;20113;-82
2023/04/20 08:34:22;;;;;;;4.95;3.60;;;;;;;;;;4851476;29;20041;-82
2023/04/20 08:36:50;;;;;;;4.15;3.75;;;;;;;;;;4864215;29;20113;-82
2023/04/20 08:39:20;;;;;;;3.33;3.13;;;;;;;;;;4863151;29;20053;-82
2023/04/20 08:41:52;;;;;;;3.63;3.22;;;;;;;;;;4853862;29;20065;-82
2023/04/20 08:44:19;;;;;;;;;;;;;;;;;;4845842;29;20191;-83
2023/04/20 08:46:47;;;;;;;2.65;2.45;;;;;;;;;;4845092;29;19959;-82
2023/04/20 08:49:16;;;;;;;3.08;2.88;;;;;;;;;;4847323;29;20050;-82
2023/04/20 08:51:44;;;;;;;5.85;3.28;;;;;;;;;;4856178;29;20057;-82
2023/04/20 08:54:12;;;;;;;3.50;3.30;;;;;;;;;;4866731;29;20053;-83
2023/04/20 08:56:40;;;;;;;3.50;3.10;;;;;;;;;;4859750;29;20057;-82
2023/04/20 08:59:09;;;;;;;3.22;3.03;;;;;;;;;;4849803;29;20078;-82
2023/04/20 09:01:38;;;;;;;2.92;2.60;;;;;;;;;;4846047;29;20054;-83
2023/04/20 09:04:26;;;;;;;2.00;1.90;;;;;;;;;;4842451;29;20057;-82
2023/04/20 09:06:55;;;;;;;2.58;2.38;;;;;;;;;;4846939;29;20062;-83
2023/04/20 09:09:24;;;;;;;3.05;2.80;;;;;;;;;;4854714;29;20049;-82
2023/04/20 09:12:02;;;;;;;2.90;2.70;;;;;;;;;;4851235;29;20157;-83
2023/04/20 09:14:46;;;;;;;3.03;2.83;;;;;;;;;;4852790;29;20482;-82
2023/04/20 09:17:20;;;;;;;5.90;2.53;;;;;;;;;;4845718;29;20068;-84
2023/04/20 09:19:52;;;;;;;18.42;15.25;;;;;;;;;;4856361;29;20050;-83
2023/04/20 09:22:30;;;;;;;23.75;16.10;;;;;;;;;;4854914;29;20271;-83
2023/04/20 09:28:13;;;;;;;7.15;5.95;;;;;;;;;;4853164;29;20122;-82
2023/04/20 09:30:50;;;;;;;7.28;6.32;;;;;;;;;;4859065;29;20105;-83
2023/04/20 09:33:18;;;;;;;6.45;5.05;;;;;;;;;;4855852;29;20112;-85
2023/04/20 09:35:46;;;;;;;7.53;6.00;;;;;;;;;;4859322;29;20061;-84
2023/04/20 09:38:16;;;;;;;5.20;3.80;;;;;;;;;;4849253;29;20041;-82
2023/04/20 09:40:44;;;;;;;3.92;3.63;;;;;;;;;;4857897;29;20049;-83
2023/04/20 09:43:18;;;;;;;7.10;5.90;;;;;;;;;;4853820;29;20050;-84
2023/04/20 09:45:46;;;;;;;5.15;4.65;;;;;;;;;;4854382;29;20121;-83
2023/04/20 09:48:17;;;;;;;10.20;8.00;;;;;;;;;;4852770;29;20042;-83
2023/04/20 09:50:46;;;;;;;7.55;6.00;;;;;;;;;;4853189;29;20049;-84
2023/04/20 09:53:17;;;;;;;6.45;4.93;;;;;;;;;;4852080;29;20073;-84
2023/04/20 09:55:49;;;;;;;3.80;3.05;;;;;;;;;;4853311;29;20050;-83
2023/04/20 09:58:20;;;;;;;2.92;2.72;;;;;;;;;;4851125;29;20071;-82
2023/04/20 10:00:48;;;;;;;3.00;2.80;;;;;;;;;;4840816;29;20102;-82
2023/04/20 10:03:17;;;;;;;2.65;2.55;;;;;;;;;;4847730;29;20050;-83
2023/04/20 10:05:45;;;;;;;4.78;2.78;;;;;;;;;;4845176;29;20050;-83
2023/04/20 10:08:13;;;;;;;2.83;2.60;;;;;;;;;;4846519;29;20577;-82
2023/04/20 10:10:45;;;;;;;3.08;2.88;;;;;;;;;;4848585;29;20126;-83
2023/04/20 10:13:18;;;;;;;2.97;2.78;;;;;;;;;;4854891;29;20053;-83
2023/04/20 10:15:46;;;;;;;2.80;2.60;;;;;;;;;;4848407;29;20070;-84
2023/04/20 10:18:17;;;;;;;3.15;2.95;;;;;;;;;;4846310;29;20116;-83
2023/04/20 10:20:45;;;;;;;16.38;11.00;;;;;;;;;;4846294;29;20054;-83
2023/04/20 10:23:14;;;;;;;3.03;2.38;;;;;;;;;;4848212;29;20136;-84
2023/04/20 10:25:44;;;;;;;2.90;2.70;;;;;;;;;;4848388;29;20081;-83
2023/04/20 10:28:11;;;;;;;2.63;2.42;;;;;;;;;;4847926;29;20053;-83
2023/04/20 10:30:49;;;;;;;2.63;2.42;;;;;;;;;;4854499;29;20415;-84
2023/04/20 10:33:17;;;;;;;2.70;2.50;;;;;;;;;;4850552;29;20135;-83
2023/04/20 10:35:53;;;;;;;2.58;2.40;;;;;;;;;;4857894;29;20287;-83
2023/04/20 10:38:31;;;;;;;4.22;2.55;;;;;;;;;;4860455;29;20080;-83
2023/04/20 10:41:08;;;;;;;3.92;2.53;;;;;;;;;;4860110;29;20061;-83
2023/04/20 10:43:37;;;;;;;28.90;19.20;;;;;;;;;;4847512;29;20173;-83
2023/04/20 10:46:21;;;;;;;62.00;30.10;;;;;;;;;;4849545;29;20049;-84
2023/04/20 10:53:21;;;;;;;6.32;5.72;;;;;;;;;;4855931;29;20053;-84
2023/04/20 10:55:59;;;;;;;3.00;2.67;;;;;;;;;;4851547;29;20042;-83
2023/04/20 10:58:26;;;;;;;2.53;2.33;;;;;;;;;;4851472;29;20125;-84
2023/04/20 11:01:09;;;;;;;2.88;2.67;;;;;;;;;;4855191;29;20030;-85
2023/04/20 11:03:36;;;;;;;2.90;2.70;;;;;;;;;;4852369;29;20050;-82
2023/04/20 11:06:05;;;;;;;2.92;2.72;;;;;;;;;;4863821;29;20069;-83
2023/04/20 11:08:37;;;;;;;2.47;2.38;;;;;;;;;;4854261;29;20060;-83
2023/04/20 11:11:04;;;;;;;3.80;3.38;;;;;;;;;;4861923;29;20049;-83
2023/04/20 11:13:33;;;;;;;2.85;2.63;;;;;;;;;;4863938;29;20125;-83
2023/04/20 11:16:09;;;;;;;11.48;8.40;;;;;;;;;;4847083;29;20049;-81
2023/04/20 11:18:37;;;;;;;56.17;40.33;;;;;;;;;;4867535;29;20085;-82
2023/04/20 11:21:04;;;;;;;3.75;3.45;;;;;;;;;;4868168;29;20078;-82
2023/04/20 11:23:37;;;;;;;4.40;3.20;;;;;;;;;;4863518;29;20169;-83
2023/04/20 11:26:05;;;;;;;3.15;2.90;;;;;;;;;;4865221;29;20105;-83
2023/04/20 11:28:33;;;;;;;18.40;11.05;;;;;;;;;;4865150;29;20460;-82
2023/04/20 11:31:01;;;;;;;4.53;3.00;;;;;;;;;;4855257;29;20065;-84
2023/04/20 11:33:29;;;;;;;3.65;3.33;;;;;;;;;;4858004;29;20045;-83
2023/04/20 11:36:01;;;;;;;4.10;3.70;;;;;;;;;;4859787;29;20049;-84
2023/04/20 11:38:35;;;;;;;3.65;3.28;;;;;;;;;;4845631;29;20165;-82
2023/04/20 11:41:06;;;;;;;4.05;3.65;;;;;;;;;;4849985;29;20054;-83
2023/04/20 11:43:36;;;;;;;4.15;3.80;;;;;;;;;;4862415;29;20134;-83
2023/04/20 11:46:13;;;;;;;4.45;4.03;;;;;;;;;;4858756;29;20065;-83
2023/04/20 11:48:43;;;;;;;6.03;4.30;;;;;;;;;;4860602;29;20057;-84
2023/04/20 11:51:11;;;;;;;3.60;3.40;;;;;;;;;;4862813;29;20554;-83
2023/04/20 11:53:39;;;;;;;4.65;4.25;;;;;;;;;;4858052;29;20049;-82
2023/04/20 11:56:07;;;;;;;4.45;3.60;;;;;;;;;;4848623;29;20053;-83
2023/04/20 11:58:35;;;;;;;6.28;4.10;;;;;;;;;;4841462;29;20126;-83
2023/04/20 12:01:04;;;;;;;4.88;4.30;;;;;;;;;;4844964;29;20057;-84
2023/04/20 12:03:31;;;;;;;4.65;4.30;;;;;;;;;;4851085;29;20523;-82
2023/04/20 12:05:59;;;;;;;3.70;3.40;;;;;;;;;;4845996;29;20049;-83
2023/04/20 12:08:27;;;;;;;3.40;3.20;;;;;;;;;;4847441;29;20058;-82
2023/04/20 12:10:54;;;;;;;3.50;3.20;;;;;;;;;;4825377;29;20046;-83
2023/04/20 12:13:25;;;;;;;3.92;3.63;;;;;;;;;;4836994;29;20073;-83
2023/04/20 12:15:52;;;;;;;3.83;3.50;;;;;;;;;;4837167;29;20074;-83
2023/04/20 12:18:20;;;;;;;3.75;3.50;;;;;;;;;;4845213;29;20052;-83
2023/04/20 12:20:49;;;;;;;5.95;3.83;;;;;;;;;;4856905;29;20076;-84
2023/04/20 12:23:17;;;;;;;3.75;3.45;;;;;;;;;;4843760;29;20404;-83
2023/04/20 12:25:45;;;;;;;4.13;3.25;;;;;;;;;;4854215;29;20477;-83
2023/04/20 12:28:12;;;;;;;3.70;3.40;;;;;;;;;;4855812;29;20546;-83
2023/04/20 12:30:40;;;;;;;20.30;16.55;;;;;;;;;;4839897;29;20050;-83
2023/04/20 12:33:07;;;;;;;7.25;3.22;;;;;;;;;;4845905;29;20054;-84
2023/04/20 12:35:35;;;;;;;4.18;3.45;;;;;;;;;;4855804;29;20053;-81
2023/04/20 12:38:02;;;;;;;4.72;3.67;;;;;;;;;;4862196;29;20084;-81
2023/04/20 12:40:30;;;;;;;4.13;3.78;;;;;;;;;;4855743;29;20231;-82
2023/04/20 12:42:57;;;;;;;4.93;4.50;;;;;;;;;;4845811;29;20050;-81
2023/04/20 12:45:24;;;;;;;4.25;3.90;;;;;;;;;;4847502;29;20081;-84
2023/04/20 12:47:52;;;;;;;6.25;4.20;;;;;;;;;;4859046;29;20101;-84
2023/04/20 12:50:22;;;;;;;4.05;3.75;;;;;;;;;;4857471;29;20053;-84
2023/04/20 12:52:57;;;;;;;4.13;3.78;;;;;;;;;;4858611;29;20053;-84
2023/04/20 12:55:25;;;;;;;4.50;3.78;;;;;;;;;;4857108;29;20049;-84
2023/04/20 12:57:52;;;;;;;5.22;4.70;;;;;;;;;;4856446;29;20092;-84
2023/04/20 13:00:20;;;;;;;5.63;4.13;;;;;;;;;;4854625;29;20477;-84
2023/04/20 13:02:47;;;;;;;4.50;4.10;;;;;;;;;;4853674;29;20045;-84
2023/04/20 13:05:16;;;;;;;4.13;3.53;;;;;;;;;;4847906;29;20056;-84
2023/04/20 13:07:43;;;;;;;4.05;3.67;;;;;;;;;;4848168;29;20189;-84
2023/04/20 13:10:11;;;;;;;4.18;3.78;;;;;;;;;;4846984;29;20057;-84
2023/04/20 13:12:39;;;;;;;3.75;3.45;;;;;;;;;;4849317;29;20150;-84
2023/04/20 13:15:08;;;;;;;4.38;3.97;;;;;;;;;;4840051;29;20181;-84
2023/04/20 13:17:35;;;;;;;3.63;3.33;;;;;;;;;;4848242;29;21093;-84
2023/04/20 13:20:03;;;;;;;3.95;3.10;;;;;;;;;;4851707;29;20505;-84
2023/04/20 13:22:31;;;;;;;3.75;3.45;;;;;;;;;;4850947;29;20045;-85
2023/04/20 13:24:58;;;;;;;4.13;3.65;;;;;;;;;;4849247;29;20462;-83
2023/04/20 13:27:26;;;;;;;6.32;3.40;;;;;;;;;;4847232;29;20077;-84
2023/04/20 13:29:54;;;;;;;3.55;3.05;;;;;;;;;;4853687;29;20136;-84
2023/04/20 13:32:21;;;;;;;3.22;2.42;;;;;;;;;;4848790;29;20049;-84
2023/04/20 13:34:48;;;;;;;13.80;12.45;;;;;;;;;;4835311;29;20315;-83
2023/04/20 13:37:16;;;;;;;2.40;2.20;;;;;;;;;;4844646;29;20073;-82
2023/04/20 13:39:44;;;;;;;2.83;1.77;;;;;;;;;;4853690;29;20499;-83
2023/04/20 13:42:14;;;;;;;2.72;2.33;;;;;;;;;;4862207;29;20049;-84
2023/04/20 13:44:53;;;;;;;2.15;1.95;;;;;;;;;;4847662;29;20042;-84
2023/04/20 13:47:24;;;;;;;10.23;8.88;;;;;;;;;;4844481;29;20068;-83
2023/04/20 13:49:55;;;;;;;19.83;17.67;;;;;;;;;;4842653;29;20058;-84
2023/04/20 13:52:23;;;;;;;16.45;10.63;;;;;;;;;;4844627;29;20046;-83
2023/04/20 13:54:50;;;;;;;5.22;1.90;;;;;;;;;;4844711;29;20065;-82
2023/04/20 13:57:18;;;;;;;1.73;1.55;;;;;;;;;;4845495;29;20098;-82
2023/04/20 13:59:48;;;;;;;2.10;2.00;;;;;;;;;;4839757;29;20564;-81
2023/04/20 14:02:23;;;;;;;2.13;1.65;;;;;;;;;;4859562;29;20057;-85
2023/04/20 14:04:51;;;;;;;29.17;20.48;;;;;;;;;;4856933;29;20129;-85
2023/04/20 14:07:22;;;;;;;2.78;1.83;;;;;;;;;;4850486;29;20057;-87
2023/04/20 14:09:51;;;;;;;127.60;83.65;;;;;;;;;;4845688;29;20065;-85
2023/04/20 14:12:23;;;;;;;3.08;2.00;;;;;;;;;;4852180;29;20077;-84
2023/04/20 14:14:50;;;;;;;1.58;1.48;;;;;;;;;;4848381;29;20237;-84
2023/04/20 14:17:21;;;;;;;2.03;1.85;;;;;;;;;;4849042;29;20058;-84
2023/04/20 14:19:48;;;;;;;8.88;8.05;;;;;;;;;;4849147;24;20076;-79
2023/04/20 14:22:16;;;;;;;13.90;9.70;;;;;;;;;;4808390;29;20046;-79
2023/04/20 14:24:47;;;;;;;8.27;5.88;;;;;;;;;;4819531;29;20103;-80
2023/04/20 14:27:17;;;;;;;1.70;1.60;;;;;;;;;;4816041;29;20149;-79
2023/04/20 14:29:46;;;;;;;91.05;54.00;;;;;;;;;;4819101;29;20122;-79
2023/04/20 14:32:14;;;;;;;2.80;1.90;;;;;;;;;;4817574;29;20509;-78
2023/04/20 14:34:48;;;;;;;2.28;2.08;;;;;;;;;;4813368;29;20046;-78
2023/04/20 14:37:16;;;;;;;2.40;2.20;;;;;;;;;;4811780;29;20058;-78
2023/04/20 14:39:43;;;;;;;7.85;2.10;;;;;;;;;;4812297;29;20183;-79
2023/04/20 14:42:12;;;;;;;9.30;8.55;;;;;;;;;;4822987;29;20136;-79
2023/04/20 14:44:39;;;;;;;1.90;1.80;;;;;;;;;;4816173;29;20062;-79
2023/04/20 14:47:06;;;;;;;2.55;1.50;;;;;;;;;;4817367;29;20521;-78
2023/04/20 14:49:34;;;;;;;30.60;25.42;;;;;;;;;;4818315;29;20051;-79
2023/04/20 14:52:02;;;;;;;1.65;1.40;;;;;;;;;;4816358;29;20058;-79
2023/04/20 14:54:29;;;;;;;2.67;1.83;;;;;;;;;;4823617;29;20092;-79
2023/04/20 14:56:57;;;;;;;6.13;5.57;;;;;;;;;;4818423;29;20126;-77
2023/04/20 14:59:27;;;;;;;4.63;4.32;;;;;;;;;;4819901;29;20053;-78